createdAt,value
2019-02-06T00:00:38.702Z,18.6
2019-02-06T00:01:20.464Z,18.4
2019-02-06T00:02:10.425Z,18.4
2019-02-06T00:03:03.830Z,18.3
2019-02-06T00:03:50.275Z,18.2
2019-02-06T00:04:41.420Z,18.1
2019-02-06T00:05:30.705Z,18.5
2019-02-06T00:06:19.985Z,18.8
2019-02-06T00:07:10.683Z,18.9
2019-02-06T00:08:00.746Z,18.9
2019-02-06T00:08:53.276Z,18.9
2019-02-06T00:09:41.275Z,19.2
2019-02-06T00:10:31.617Z,19.4
2019-02-06T00:11:21.022Z,19.4
2019-02-06T00:12:11.794Z,19.5
2019-02-06T00:13:01.982Z,19.5
2019-02-06T00:13:51.965Z,19.5
2019-02-06T00:14:42.690Z,19.5
2019-02-06T00:15:30.583Z,19.5
2019-02-06T00:16:21.814Z,19.5
2019-02-06T00:17:11.100Z,19.5
2019-02-06T00:18:05.390Z,19.6
2019-02-06T00:18:51.598Z,19.6
2019-02-06T00:19:40.697Z,19.6
2019-02-06T00:20:32.289Z,19.6
2019-02-06T00:21:25.356Z,19.4
2019-02-06T00:22:11.864Z,19.1
2019-02-06T00:23:00.587Z,18.9
2019-02-06T00:23:54.697Z,18.8
2019-02-06T00:24:42.982Z,18.6
2019-02-06T00:25:31.691Z,18.5
2019-02-06T00:26:21.467Z,18.4
2019-02-06T00:27:13.514Z,18.3
2019-02-06T00:28:02.454Z,18.3
2019-02-06T00:28:51.688Z,18.1
2019-02-06T00:29:42.923Z,18.1
2019-02-06T00:30:32.351Z,18.5
2019-02-06T00:32:12.575Z,18.8
2019-02-06T00:33:04.737Z,18.9
2019-02-06T00:33:53.195Z,18.9
2019-02-06T00:34:42.679Z,19.2
2019-02-06T00:35:35.469Z,19.3
2019-02-06T00:36:25.641Z,19.4
2019-02-06T00:37:13.001Z,19.4
2019-02-06T00:38:06.928Z,19.5
2019-02-06T00:38:52.940Z,19.6
2019-02-06T00:39:43.043Z,19.6
2019-02-06T00:40:33.871Z,19.6
2019-02-06T00:41:22.538Z,19.6
2019-02-06T00:42:15.430Z,19.6
2019-02-06T00:43:02.975Z,19.6
2019-02-06T00:43:52.685Z,19.6
2019-02-06T00:44:43.447Z,19.6
2019-02-06T00:45:35.739Z,19.6
2019-02-06T00:46:23.984Z,19.3
2019-02-06T00:47:14.076Z,19.1
2019-02-06T00:48:02.872Z,18.9
2019-02-06T00:48:53.940Z,18.8
2019-02-06T00:49:43.972Z,18.6
2019-02-06T00:50:33.422Z,18.5
2019-02-06T00:51:26.327Z,18.4
2019-02-06T00:52:13.412Z,18.3
2019-02-06T00:53:04.474Z,18.3
2019-02-06T00:53:53.794Z,18.4
2019-02-06T00:55:34.497Z,18.9
2019-02-06T00:56:24.437Z,19
2019-02-06T00:57:15.533Z,19.1
2019-02-06T00:58:04.120Z,19.1
2019-02-06T00:58:54.054Z,19.2
2019-02-06T00:59:43.641Z,19.4
2019-02-06T01:00:37.082Z,19.5
2019-02-06T01:01:25.079Z,19.6
2019-02-06T01:02:14.921Z,19.6
2019-02-06T01:03:05.023Z,19.6
2019-02-06T01:03:54.541Z,19.6
2019-02-06T01:04:44.429Z,19.6
2019-02-06T01:05:47.576Z,19.6
2019-02-06T01:06:26.729Z,19.6
2019-02-06T01:07:15.078Z,19.6
2019-02-06T01:08:04.418Z,19.6
2019-02-06T01:08:55.878Z,19.6
2019-02-06T01:09:48.056Z,19.6
2019-02-06T01:10:35.276Z,19.3
2019-02-06T01:11:24.380Z,19.1
2019-02-06T01:12:15.112Z,18.9
2019-02-06T01:13:05.379Z,18.8
2019-02-06T01:13:54.978Z,18.6
2019-02-06T01:14:45.258Z,18.5
2019-02-06T01:15:37.758Z,18.4
2019-02-06T01:16:25.903Z,18.3
2019-02-06T01:17:15.338Z,18.3
2019-02-06T01:18:06.053Z,18.1
2019-02-06T01:18:57.768Z,18.4
2019-02-06T01:20:35.581Z,18.8
2019-02-06T01:21:26.360Z,18.9
2019-02-06T01:22:15.857Z,19
2019-02-06T01:23:04.771Z,19.1
2019-02-06T01:23:56.715Z,19.3
2019-02-06T01:24:48.750Z,19.4
2019-02-06T01:25:35.720Z,19.4
2019-02-06T01:26:26.128Z,19.5
2019-02-06T01:27:16.169Z,19.5
2019-02-06T01:28:06.607Z,19.5
2019-02-06T01:28:56.692Z,19.5
2019-02-06T01:29:45.997Z,19.5
2019-02-06T01:30:38.394Z,19.4
2019-02-06T01:31:26.905Z,19.4
2019-02-06T01:32:16.704Z,19.4
2019-02-06T01:33:06.522Z,19.5
2019-02-06T01:33:59.287Z,19.5
2019-02-06T01:34:47.459Z,19.4
2019-02-06T01:35:37.071Z,19.2
2019-02-06T01:36:27.277Z,18.9
2019-02-06T01:37:17.261Z,18.8
2019-02-06T01:38:56.056Z,18.6
2019-02-06T01:39:48.829Z,18.5
2019-02-06T01:40:37.575Z,18.4
2019-02-06T01:41:27.404Z,18.3
2019-02-06T01:42:17.938Z,18.3
2019-02-06T01:43:06.641Z,18.1
2019-02-06T01:43:57.211Z,18.4
2019-02-06T01:44:47.678Z,18.6
2019-02-06T01:45:38.980Z,18.8
2019-02-06T01:46:27.686Z,18.9
2019-02-06T01:47:18.214Z,18.9
2019-02-06T01:48:07.287Z,19
2019-02-06T01:49:00.918Z,19.3
2019-02-06T01:49:50.781Z,19.4
2019-02-06T01:50:38.256Z,19.4
2019-02-06T01:51:28.631Z,19.5
2019-02-06T01:52:18.524Z,19.5
2019-02-06T01:53:07.598Z,19.5
2019-02-06T01:53:58.356Z,19.5
2019-02-06T01:54:50.593Z,19.5
2019-02-06T01:55:37.895Z,19.5
2019-02-06T01:56:28.780Z,19.5
2019-02-06T01:57:18.233Z,19.5
2019-02-06T01:58:11.180Z,19.5
2019-02-06T01:58:58.020Z,19.5
2019-02-06T01:59:48.466Z,19.4
2019-02-06T02:00:39.715Z,19.1
2019-02-06T02:01:28.554Z,18.9
2019-02-06T02:02:18.552Z,18.8
2019-02-06T02:03:09.541Z,18.6
2019-02-06T02:04:00.700Z,18.6
2019-02-06T02:04:49.364Z,18.4
2019-02-06T02:05:41.867Z,18.4
2019-02-06T02:06:29.180Z,18.3
2019-02-06T02:07:18.087Z,18.2
2019-02-06T02:08:08.719Z,18.6
2019-02-06T02:08:58.424Z,18.8
2019-02-06T02:09:50.932Z,18.9
2019-02-06T02:10:38.835Z,19
2019-02-06T02:11:29.475Z,19.1
2019-02-06T02:12:18.605Z,19.1
2019-02-06T02:13:12.835Z,19.3
2019-02-06T02:13:58.805Z,19.4
2019-02-06T02:14:49.422Z,19.5
2019-02-06T02:15:39.727Z,19.6
2019-02-06T02:16:29.639Z,19.6
2019-02-06T02:17:20.151Z,19.6
2019-02-06T02:18:08.614Z,19.6
2019-02-06T02:19:01.857Z,19.6
2019-02-06T02:19:50.057Z,19.6
2019-02-06T02:20:40.237Z,19.6
2019-02-06T02:21:29.899Z,19.6
2019-02-06T02:22:21.871Z,19.6
2019-02-06T02:23:10.271Z,19.6
2019-02-06T02:24:00.829Z,19.4
2019-02-06T02:24:50.361Z,19.2
2019-02-06T02:25:39.739Z,19
2019-02-06T02:26:29.653Z,18.8
2019-02-06T02:28:13.341Z,18.6
2019-02-06T02:28:59.938Z,18.4
2019-02-06T02:29:50.731Z,18.4
2019-02-06T02:30:40.882Z,18.3
2019-02-06T02:31:35.263Z,18.2
2019-02-06T02:32:21.019Z,18.1
2019-02-06T02:33:10.188Z,18.6
2019-02-06T02:33:59.980Z,18.8
2019-02-06T02:34:50.568Z,18.9
2019-02-06T02:35:41.230Z,19
2019-02-06T02:36:30.800Z,19
2019-02-06T02:37:24.632Z,19.1
2019-02-06T02:38:12.093Z,19.3
2019-02-06T02:39:00.832Z,19.4
2019-02-06T02:39:51.599Z,19.5
2019-02-06T02:40:43.734Z,19.5
2019-02-06T02:41:31.336Z,19.5
2019-02-06T02:42:20.786Z,19.5
2019-02-06T02:43:12.523Z,19.5
2019-02-06T02:44:01.853Z,19.5
2019-02-06T02:44:51.360Z,19.5
2019-02-06T02:45:41.829Z,19.5
2019-02-06T02:46:34.964Z,19.6
2019-02-06T02:47:22.417Z,19.5
2019-02-06T02:48:12.759Z,19.5
2019-02-06T02:49:02.617Z,19.3
2019-02-06T02:49:53.195Z,19.1
2019-02-06T02:50:41.189Z,18.9
2019-02-06T02:51:32.647Z,18.8
2019-02-06T02:52:23.078Z,18.6
2019-02-06T02:53:11.473Z,18.6
2019-02-06T02:54:02.302Z,18.4
2019-02-06T02:54:53.107Z,18.4
2019-02-06T02:55:46.461Z,18.3
2019-02-06T02:56:33.359Z,18.1
2019-02-06T02:57:23.014Z,18.1
2019-02-06T02:58:12.911Z,18.5
2019-02-06T02:59:52.620Z,18.8
2019-02-06T03:00:42.855Z,18.9
2019-02-06T03:01:34.409Z,18.9
2019-02-06T03:02:23.377Z,19.1
2019-02-06T03:03:12.871Z,19.3
2019-02-06T03:04:03.362Z,19.4
2019-02-06T03:04:55.827Z,19.4
2019-02-06T03:08:26.806Z,19.5
2019-02-06T03:09:15.707Z,19.5
2019-02-06T03:10:05.844Z,19.5
2019-02-06T03:10:54.952Z,19.5
2019-02-06T03:11:48.168Z,19.5
2019-02-06T03:12:35.270Z,19.5
2019-02-06T03:13:25.108Z,19.4
2019-02-06T03:14:16.158Z,19.2
2019-02-06T03:15:06.072Z,19
2019-02-06T03:15:56.419Z,18.8
2019-02-06T03:17:39.139Z,18.6
2019-02-06T03:18:24.958Z,18.5
2019-02-06T03:19:16.119Z,18.4
2019-02-06T03:20:06.460Z,18.3
2019-02-06T03:20:58.617Z,18.2
2019-02-06T03:21:46.513Z,18.5
2019-02-06T03:23:27.188Z,18.9
2019-02-06T03:24:16.505Z,19
2019-02-06T03:25:07.092Z,19
2019-02-06T03:25:56.385Z,19.1
2019-02-06T03:26:48.933Z,19.3
2019-02-06T03:27:37.197Z,19.4
2019-02-06T03:28:27.003Z,19.5
2019-02-06T03:29:16.464Z,19.6
2019-02-06T03:30:10.070Z,19.6
2019-02-06T03:30:56.892Z,19.6
2019-02-06T03:31:47.143Z,19.6
2019-02-06T03:32:37.402Z,19.6
2019-02-06T03:33:28.367Z,19.6
2019-02-06T03:34:16.927Z,19.5
2019-02-06T03:35:07.455Z,19.5
2019-02-06T03:36:00.324Z,19.5
2019-02-06T03:36:50.803Z,19.6
2019-02-06T03:37:37.614Z,19.5
2019-02-06T03:38:27.760Z,19.3
2019-02-06T03:39:17.828Z,19.1
2019-02-06T03:40:07.754Z,18.9
2019-02-06T03:40:57.609Z,18.8
2019-02-06T03:42:37.143Z,18.6
2019-02-06T03:43:27.876Z,18.5
2019-02-06T03:44:17.931Z,18.4
2019-02-06T03:45:10.433Z,18.3
2019-02-06T03:45:58.275Z,18.2
2019-02-06T03:46:48.684Z,18.5
2019-02-06T03:47:38.978Z,18.8
2019-02-06T03:48:28.349Z,18.9
2019-02-06T03:49:17.704Z,18.9
2019-02-06T03:50:08.335Z,19.1
2019-02-06T03:51:01.006Z,19.1
2019-02-06T03:51:49.230Z,19.3
2019-02-06T03:52:38.146Z,19.4
2019-02-06T03:53:28.449Z,19.5
2019-02-06T03:54:20.268Z,19.5
2019-02-06T03:55:08.914Z,19.5
2019-02-06T03:55:58.364Z,19.5
2019-02-06T03:56:49.420Z,19.5
2019-02-06T03:57:39.349Z,19.5
2019-02-06T03:58:28.529Z,19.6
2019-02-06T03:59:19.446Z,19.6
2019-02-06T04:00:12.530Z,19.6
2019-02-06T04:00:59.252Z,19.5
2019-02-06T04:01:49.052Z,19.5
2019-02-06T04:02:39.322Z,19.4
2019-02-06T04:03:29.882Z,19.3
2019-02-06T04:04:19.516Z,19.1
2019-02-06T04:05:09.232Z,18.9
2019-02-06T04:06:01.392Z,18.8
2019-02-06T04:07:11.298Z,18.6
2019-02-06T04:07:38.945Z,18.4
2019-02-06T04:08:29.537Z,18.4
2019-02-06T04:09:22.535Z,18.3
2019-02-06T04:10:09.575Z,18.2
2019-02-06T04:10:59.415Z,18.1
2019-02-06T04:11:50.471Z,18.6
2019-02-06T04:12:39.864Z,18.8
2019-02-06T04:13:30.125Z,18.9
2019-02-06T04:14:19.977Z,18.9
2019-02-06T04:15:13.487Z,19
2019-02-06T04:16:00.726Z,19
2019-02-06T04:16:50.724Z,19.2
2019-02-06T04:17:38.530Z,19.4
2019-02-06T04:18:31.670Z,19.4
2019-02-06T04:19:20.046Z,19.4
2019-02-06T04:20:09.929Z,19.5
2019-02-06T04:21:01.162Z,19.5
2019-02-06T04:21:51.126Z,19.5
2019-02-06T04:22:40.093Z,19.5
2019-02-06T04:23:30.886Z,19.5
2019-02-06T04:24:23.358Z,19.4
2019-02-06T04:25:26.041Z,19.5
2019-02-06T04:26:01.323Z,19.4
2019-02-06T04:26:50.856Z,19.5
2019-02-06T04:27:43.413Z,19.4
2019-02-06T04:28:30.944Z,19.4
2019-02-06T04:29:20.959Z,19.4
2019-02-06T04:30:11.837Z,19.3
2019-02-06T04:31:01.801Z,19.3
2019-02-06T04:31:51.243Z,19.2
2019-02-06T04:32:40.992Z,19.1
2019-02-06T04:33:33.871Z,19
2019-02-06T06:07:15.166Z,18.9
2019-02-06T06:08:07.302Z,19.1
2019-02-06T06:08:54.559Z,19.1
2019-02-06T06:09:44.281Z,19.2
2019-02-06T06:10:35.463Z,19.3
2019-02-06T06:11:26.971Z,19.3
2019-02-06T06:12:15.318Z,19.3
2019-02-06T06:13:05.047Z,19.3
2019-02-06T06:13:56.303Z,19.3
2019-02-06T06:14:45.945Z,19.3
2019-02-06T06:15:35.466Z,19.3
2019-02-06T06:16:25.586Z,19.3
2019-02-06T06:17:17.582Z,19.3
2019-02-06T06:18:05.651Z,19.3
2019-02-06T06:18:56.221Z,19
2019-02-06T06:19:46.316Z,18.6
2019-02-06T06:20:35.526Z,18.4
2019-02-06T06:21:25.818Z,18.1
2019-02-06T06:22:16.189Z,17.9
2019-02-06T06:23:08.118Z,17.8
2019-02-06T06:23:56.319Z,17.7
2019-02-06T06:24:45.783Z,17.6
2019-02-06T06:25:36.848Z,17.5
2019-02-06T06:26:27.616Z,17.5
2019-02-06T06:27:16.529Z,17.9
2019-02-06T06:28:07.158Z,18.1
2019-02-06T06:28:57.443Z,18.3
2019-02-06T06:29:46.738Z,18.4
2019-02-06T06:31:25.824Z,18.9
2019-02-06T06:32:19.353Z,19
2019-02-06T06:33:07.570Z,19.1
2019-02-06T06:33:56.532Z,19.1
2019-02-06T06:34:45.691Z,19.2
2019-02-06T06:35:36.523Z,19.3
2019-02-06T06:36:26.676Z,19.3
2019-02-06T06:37:17.418Z,19.3
2019-02-06T06:38:12.505Z,19.3
2019-02-06T06:38:57.435Z,19.3
2019-02-06T06:39:47.960Z,19.3
2019-02-06T06:40:36.668Z,19.3
2019-02-06T06:41:29.248Z,19.3
2019-02-06T06:42:16.511Z,19.2
2019-02-06T06:43:08.215Z,18.9
2019-02-06T06:43:57.667Z,18.5
2019-02-06T06:44:46.606Z,18.3
2019-02-06T06:45:37.262Z,18.1
2019-02-06T06:46:26.462Z,17.9
2019-02-06T06:47:19.792Z,17.8
2019-02-06T06:48:07.989Z,17.6
2019-02-06T06:48:57.467Z,17.6
2019-02-06T06:49:47.834Z,17.4
2019-02-06T06:50:41.210Z,17.6
2019-02-06T06:51:28.539Z,18
2019-02-06T06:52:18.111Z,18.1
2019-02-06T06:53:08.286Z,18.3
2019-02-06T06:53:58.056Z,18.4
2019-02-06T06:54:48.149Z,18.5
2019-02-06T06:55:41.682Z,18.5
2019-02-06T06:56:29.423Z,18.6
2019-02-06T06:57:21.183Z,18.6
2019-02-06T06:58:08.011Z,18.5
2019-02-06T06:58:58.811Z,18.5
2019-02-06T06:59:50.053Z,18.6
2019-02-06T07:00:38.266Z,18.8
2019-02-06T07:01:28.171Z,18.8
2019-02-06T07:02:19.598Z,18.9
2019-02-06T07:03:08.108Z,18.9
2019-02-06T07:03:58.818Z,18.9
2019-02-06T07:06:25.098Z,18.8
2019-02-06T07:07:14.793Z,18.8
2019-02-06T07:08:54.896Z,18.6
2019-02-06T07:09:45.130Z,18.6
2019-02-06T07:10:36.043Z,18.5
2019-02-06T07:11:27.115Z,18.4
2019-02-06T07:12:15.490Z,18.3
2019-02-06T07:13:05.305Z,18.3
2019-02-06T07:13:58.462Z,18.6
2019-02-06T07:15:35.917Z,18.8
2019-02-06T07:16:25.390Z,18.9
2019-02-06T07:17:16.538Z,18.9
2019-02-06T07:18:05.343Z,18.9
2019-02-06T07:18:56.408Z,18.9
2019-02-06T07:19:46.039Z,18.9
2019-02-06T07:20:38.442Z,19
2019-02-06T07:21:25.490Z,19.1
2019-02-06T07:22:16.367Z,19.1
2019-02-06T07:23:05.084Z,19.1
2019-02-06T07:23:55.930Z,19.1
2019-02-06T07:24:46.247Z,19.1
2019-02-06T07:25:34.979Z,19.1
2019-02-06T07:26:27.504Z,19.1
2019-02-06T07:27:15.899Z,19.1
2019-02-06T07:28:06.624Z,19.1
2019-02-06T07:28:55.255Z,19.1
2019-02-06T07:29:49.484Z,19.1
2019-02-06T07:30:36.822Z,19.1
2019-02-06T07:31:27.114Z,19.1
2019-02-06T07:32:16.036Z,19.1
2019-02-06T07:33:05.834Z,19
2019-02-06T07:33:55.909Z,18.9
2019-02-06T07:34:46.979Z,18.9
2019-02-06T07:35:38.281Z,18.8
2019-02-06T07:36:26.251Z,18.8
2019-02-06T07:38:06.939Z,18.6
2019-02-06T07:38:59.222Z,18.6
2019-02-06T07:39:46.596Z,18.6
2019-02-06T07:40:37.158Z,18.5
2019-02-06T07:41:28.183Z,18.4
2019-02-06T07:42:17.728Z,18.4
2019-02-06T07:43:08.045Z,18.3
2019-02-06T07:43:56.553Z,18.2
2019-02-06T07:44:50.374Z,18.1
2019-02-06T07:45:37.988Z,18.1
2019-02-06T07:46:28.399Z,18.1
2019-02-06T07:47:17.900Z,18.4
2019-02-06T07:48:06.958Z,18.5
2019-02-06T07:48:57.418Z,18.6
2019-02-06T07:50:38.875Z,18.8
2019-02-06T07:51:27.665Z,18.8
2019-02-06T07:52:17.715Z,18.8
2019-02-06T07:53:08.412Z,18.8
2019-02-06T07:54:01.137Z,18.8
2019-02-06T07:54:48.107Z,18.9
2019-02-06T07:55:37.897Z,18.9
2019-02-06T07:56:28.277Z,18.9
2019-02-06T07:57:17.977Z,18.9
2019-02-06T07:58:08.370Z,18.9
2019-02-06T07:59:00.087Z,18.9
2019-02-06T07:59:51.145Z,18.9
2019-02-06T08:00:38.065Z,18.9
2019-02-06T08:01:28.767Z,18.9
2019-02-06T08:02:17.902Z,18.9
2019-02-06T08:03:10.664Z,18.9
2019-02-06T08:03:57.922Z,18.9
2019-02-06T08:04:51.302Z,18.8
2019-02-06T08:05:39.824Z,18.8
2019-02-06T08:07:19.220Z,18.6
2019-02-06T08:08:08.523Z,18.5
2019-02-06T08:09:01.151Z,18.4
2019-02-06T08:09:49.108Z,18.4
2019-02-06T08:10:39.560Z,18.3
2019-02-06T08:11:28.982Z,18.3
2019-02-06T08:12:20.978Z,18.6
2019-02-06T08:13:08.395Z,18.8
2019-02-06T08:13:59.390Z,18.9
2019-02-06T08:14:51.194Z,18.9
2019-02-06T08:15:39.512Z,18.9
2019-02-06T08:16:29.399Z,18.9
2019-02-06T08:17:19.092Z,18.9
2019-02-06T08:18:12.474Z,18.9
2019-02-06T08:19:00.059Z,18.8
2019-02-06T08:19:49.974Z,18.8
2019-02-06T08:20:39.617Z,18.9
2019-02-06T08:21:29.661Z,19
2019-02-06T08:22:19.990Z,19
2019-02-06T08:23:09.837Z,19
2019-02-06T08:24:01.956Z,18.9
2019-02-06T08:24:50.437Z,18.9
2019-02-06T08:25:40.089Z,18.9
2019-02-06T08:26:29.766Z,18.9
2019-02-06T08:27:22.990Z,18.9
2019-02-06T08:28:10.191Z,18.9
2019-02-06T08:28:59.928Z,18.9
2019-02-06T08:29:50.785Z,18.9
2019-02-06T08:30:40.468Z,18.9
2019-02-06T08:31:31.304Z,18.8
2019-02-06T08:33:12.658Z,18.6
2019-02-06T08:34:00.345Z,18.5
2019-02-06T08:34:51.201Z,18.4
2019-02-06T08:35:41.234Z,18.4
2019-02-06T08:36:33.380Z,18.3
2019-02-06T08:37:20.858Z,18.2
2019-02-06T08:38:11.761Z,18.1
2019-02-06T08:39:04.571Z,18.4
2019-02-06T08:39:51.748Z,18.6
2019-02-06T08:40:41.433Z,18.8
2019-02-06T08:41:30.780Z,18.9
2019-02-06T08:42:23.457Z,18.9
2019-02-06T08:43:11.775Z,18.9
2019-02-06T08:44:04.608Z,18.9
2019-02-06T08:44:51.953Z,18.9
2019-02-06T08:45:44.343Z,18.9
2019-02-06T08:46:32.302Z,18.9
2019-02-06T08:47:22.145Z,19
2019-02-06T08:48:12.377Z,19.1
2019-02-06T08:49:02.115Z,19.1
2019-02-06T08:49:52.700Z,19
2019-02-06T08:50:42.223Z,19.1
2019-02-06T08:51:34.360Z,19
2019-02-06T08:52:21.872Z,19
2019-02-06T08:53:12.545Z,18.9
2019-02-06T08:54:02.603Z,18.9
2019-02-06T08:54:53.677Z,18.9
2019-02-06T08:55:42.330Z,19
2019-02-06T08:56:32.411Z,19
2019-02-06T08:57:23.977Z,18.9
2019-02-06T08:58:11.979Z,18.6
2019-02-06T08:59:02.827Z,18.4
2019-02-06T08:59:52.330Z,18.2
2019-02-06T09:00:46.162Z,18.1
2019-02-06T09:01:32.179Z,17.9
2019-02-06T09:02:22.038Z,17.9
2019-02-06T09:03:13.264Z,17.8
2019-02-06T09:04:02.611Z,17.7
2019-02-06T09:05:08.538Z,17.6
2019-02-06T09:05:42.534Z,17.9
2019-02-06T09:06:34.916Z,18
2019-02-06T09:07:22.962Z,18.3
2019-02-06T09:08:13.017Z,18.4
2019-02-06T09:09:09.079Z,18.4
2019-02-06T09:09:55.692Z,18.5
2019-02-06T09:10:43.499Z,18.5
2019-02-06T09:11:33.444Z,18.4
2019-02-06T09:13:14.143Z,18.8
2019-02-06T09:14:03.894Z,18.8
2019-02-06T09:14:53.391Z,18.8
2019-02-06T09:15:46.451Z,18.9
2019-02-06T09:16:34.066Z,18.9
2019-02-06T09:17:23.911Z,18.9
2019-02-06T09:18:14.153Z,18.9
2019-02-06T09:19:05.912Z,18.9
2019-02-06T09:19:54.096Z,18.9
2019-02-06T09:20:44.051Z,18.9
2019-02-06T09:21:34.698Z,18.9
2019-02-06T09:22:24.731Z,18.9
2019-02-06T09:23:14.008Z,18.6
2019-02-06T09:24:04.495Z,18.3
2019-02-06T09:24:57.468Z,18.1
2019-02-06T09:25:44.765Z,17.9
2019-02-06T09:26:40.899Z,17.8
2019-02-06T09:27:24.831Z,17.7
2019-02-06T09:28:14.855Z,17.6
2019-02-06T09:29:04.200Z,17.5
2019-02-06T09:29:55.236Z,17.4
2019-02-06T09:30:47.105Z,17.6
2019-02-06T09:31:34.815Z,17.9
2019-02-06T09:32:25.247Z,18.1
2019-02-06T09:33:14.960Z,18.2
2019-02-06T09:34:09.652Z,18.3
2019-02-06T09:34:54.795Z,18.3
2019-02-06T09:35:44.417Z,18.3
2019-02-06T09:36:35.570Z,18.3
2019-02-06T09:37:25.542Z,18.6
2019-02-06T09:39:17.797Z,18.8
2019-02-06T09:39:58.537Z,18.9
2019-02-06T09:40:45.487Z,18.9
2019-02-06T09:41:35.944Z,18.9
2019-02-06T09:42:25.999Z,18.9
2019-02-06T09:43:16.202Z,18.9
2019-02-06T09:44:05.197Z,18.9
2019-02-06T09:44:56.565Z,18.9
2019-02-06T09:45:47.589Z,18.6
2019-02-06T09:46:35.624Z,18.2
2019-02-06T09:47:26.049Z,18
2019-02-06T09:48:16.476Z,17.8
2019-02-06T09:49:08.504Z,17.6
2019-02-06T09:49:58.947Z,17.5
2019-02-06T09:50:45.604Z,17.4
2019-02-06T09:51:36.614Z,17.4
2019-02-06T09:52:35.242Z,17.3
2019-02-06T09:53:15.544Z,17.2
2019-02-06T09:54:06.677Z,17.1
2019-02-06T09:55:45.858Z,16.9
2019-02-06T09:56:36.646Z,16.9
2019-02-06T09:57:26.896Z,16.8
2019-02-06T09:58:19.208Z,16.8
2019-02-06T09:59:07.121Z,16.7
2019-02-06T09:59:56.663Z,16.7
2019-02-06T10:00:47.638Z,16.6
2019-02-06T10:01:37.131Z,16.6
2019-02-06T10:02:26.416Z,16.5
2019-02-06T10:03:15.956Z,16.4
2019-02-06T10:04:09.405Z,16.4
2019-02-06T10:04:57.283Z,16.3
2019-02-06T10:07:24.962Z,16.2
2019-02-06T10:08:15.218Z,16.2
2019-02-06T10:09:04.513Z,16.1
2019-02-06T10:10:00.954Z,16.1
2019-02-06T10:10:44.560Z,16
2019-02-06T10:11:34.578Z,16
2019-02-06T10:12:24.706Z,15.9
2019-02-06T10:13:19.940Z,15.9
2019-02-06T10:14:06.330Z,15.9
2019-02-06T10:14:54.583Z,15.8
2019-02-06T10:15:44.907Z,15.8
2019-02-06T10:16:35.603Z,15.8
2019-02-06T10:17:25.352Z,15.7
2019-02-06T10:18:15.902Z,15.7
2019-02-06T10:19:08.075Z,15.6
2019-02-06T10:19:54.704Z,15.6
2019-02-06T10:20:45.514Z,15.6
2019-02-06T10:21:36.011Z,15.6
2019-02-06T10:22:27.422Z,15.5
2019-02-06T10:23:16.020Z,15.5
2019-02-06T10:24:04.952Z,15.4
2019-02-06T10:24:56.335Z,15.4
2019-02-06T10:25:46.057Z,15.4
2019-02-06T10:26:36.162Z,15.4
2019-02-06T10:27:28.942Z,15.3
2019-02-06T10:28:18.352Z,15.3
2019-02-06T10:29:05.597Z,15.3
2019-02-06T10:29:55.839Z,15.3
2019-02-06T10:30:46.765Z,15.2
2019-02-06T10:31:39.914Z,15.2
2019-02-06T10:32:26.656Z,15.2
2019-02-06T10:33:20.448Z,15.1
2019-02-06T10:34:06.990Z,15.1
2019-02-06T10:34:56.004Z,15.1
2019-02-06T10:35:46.574Z,15.1
2019-02-06T10:36:36.000Z,15
2019-02-06T10:37:31.574Z,15
2019-02-06T10:38:16.165Z,14.9
2019-02-06T10:39:06.494Z,14.9
2019-02-06T10:39:59.640Z,14.9
2019-02-06T10:40:47.182Z,14.9
2019-02-06T10:41:36.743Z,14.9
2019-02-06T10:42:26.753Z,14.8
2019-02-06T10:43:36.219Z,14.8
2019-02-06T10:44:07.091Z,14.8
2019-02-06T10:44:57.485Z,14.8
2019-02-06T10:45:47.771Z,14.8
2019-02-06T10:46:38.764Z,14.7
2019-02-06T10:47:27.888Z,14.7
2019-02-06T10:48:17.490Z,14.7
2019-02-06T10:49:07.236Z,14.7
2019-02-06T10:49:57.835Z,14.6
2019-02-06T10:50:47.428Z,14.6
2019-02-06T10:51:37.193Z,14.6
2019-02-06T10:52:30.580Z,14.6
2019-02-06T10:53:17.541Z,14.5
2019-02-06T10:54:08.396Z,14.5
2019-02-06T10:54:58.183Z,14.5
2019-02-06T10:55:47.741Z,14.5
2019-02-06T10:56:37.458Z,14.5
2019-02-06T10:57:27.610Z,14.4
2019-02-06T10:58:18.781Z,14.4
2019-02-06T10:59:08.463Z,14.4
2019-02-06T10:59:58.325Z,14.4
2019-02-06T11:00:48.988Z,14.4
2019-02-06T11:01:40.354Z,14.4
2019-02-06T11:02:27.627Z,14.3
2019-02-06T11:03:17.494Z,14.3
2019-02-06T11:04:07.648Z,14.3
2019-02-06T11:04:59.473Z,14.3
2019-02-06T11:05:48.537Z,14.3
2019-02-06T11:06:38.184Z,14.3
2019-02-06T11:07:30.332Z,14.3
2019-02-06T11:08:18.062Z,14.3
2019-02-06T11:09:08.667Z,14.2
2019-02-06T11:09:58.362Z,14.2
2019-02-06T11:10:51.807Z,14.2
2019-02-06T11:11:39.382Z,14.2
2019-02-06T11:12:32.602Z,14.2
2019-02-06T11:13:19.519Z,14.1
2019-02-06T11:14:09.496Z,14.1
2019-02-06T11:14:59.336Z,14.1
2019-02-06T11:16:04.375Z,14.1
2019-02-06T11:16:41.876Z,14.1
2019-02-06T11:17:30.009Z,14.1
2019-02-06T11:18:19.244Z,14.1
2019-02-06T11:19:09.844Z,14
2019-02-06T11:20:01.869Z,14
2019-02-06T11:20:49.481Z,14
2019-02-06T11:21:40.028Z,14
2019-02-06T11:22:30.283Z,13.9
2019-02-06T11:23:20.971Z,13.9
2019-02-06T11:24:09.350Z,13.9
2019-02-06T11:24:59.238Z,13.9
2019-02-06T11:25:53.213Z,13.9
2019-02-06T11:26:40.370Z,13.9
2019-02-06T11:27:30.398Z,13.9
2019-02-06T11:28:19.253Z,13.9
2019-02-06T11:29:12.023Z,13.9
2019-02-06T11:30:00.321Z,13.8
2019-02-06T11:30:50.678Z,13.8
2019-02-06T11:31:41.133Z,13.8
2019-02-06T11:32:30.225Z,13.8
2019-02-06T11:33:21.103Z,13.8
2019-02-06T11:34:10.050Z,13.8
2019-02-06T11:35:05.882Z,13.8
2019-02-06T11:35:50.784Z,13.8
2019-02-06T11:36:40.310Z,13.7
2019-02-06T11:37:31.085Z,13.7
2019-02-06T11:38:19.270Z,13.7
2019-02-06T11:39:10.755Z,13.7
2019-02-06T11:40:07.698Z,13.7
2019-02-06T11:40:52.307Z,13.7
2019-02-06T11:41:40.555Z,13.6
2019-02-06T11:42:30.382Z,13.6
2019-02-06T11:43:20.956Z,13.6
2019-02-06T11:44:25.532Z,13.6
2019-02-06T11:45:02.196Z,13.6
2019-02-06T11:45:51.774Z,13.6
2019-02-06T11:46:41.744Z,13.6
2019-02-06T11:47:31.341Z,13.6
2019-02-06T11:48:21.631Z,13.6
2019-02-06T11:49:11.942Z,13.5
2019-02-06T11:50:04.210Z,13.5
2019-02-06T11:50:51.882Z,13.5
2019-02-06T11:51:42.099Z,13.5
2019-02-06T11:52:32.117Z,13.5
2019-02-06T11:53:28.003Z,13.5
2019-02-06T11:54:12.553Z,13.5
2019-02-06T11:55:02.597Z,13.4
2019-02-06T11:55:52.656Z,13.4
2019-02-06T11:56:42.159Z,13.4
2019-02-06T11:57:33.426Z,13.4
2019-02-06T11:58:22.025Z,13.4
2019-02-06T11:59:14.726Z,13.4
2019-02-06T12:00:02.517Z,13.4
2019-02-06T12:00:55.507Z,13.4
2019-02-06T12:01:42.266Z,13.4
2019-02-06T12:02:44.936Z,13.4
2019-02-06T12:03:24.589Z,13.3
2019-02-06T12:04:12.460Z,13.4
2019-02-06T12:05:03.708Z,13.3
2019-02-06T12:07:23.458Z,13.3
2019-02-06T12:08:20.168Z,13.3
2019-02-06T12:09:03.761Z,13.3
2019-02-06T12:09:53.643Z,13.3
2019-02-06T12:10:47.383Z,13.3
2019-02-06T12:11:34.873Z,13.3
2019-02-06T12:12:24.542Z,13.3
2019-02-06T12:13:14.868Z,13.3
2019-02-06T12:14:07.770Z,13.2
2019-02-06T12:14:54.140Z,13.2
2019-02-06T12:15:47.313Z,13.1
2019-02-06T12:16:37.728Z,13.1
2019-02-06T12:17:25.436Z,13.1
2019-02-06T12:18:15.005Z,13.1
2019-02-06T12:19:20.190Z,13.1
2019-02-06T12:19:58.053Z,13.1
2019-02-06T12:20:45.119Z,13.1
2019-02-06T12:21:35.497Z,13.1
2019-02-06T12:22:25.342Z,13.1
2019-02-06T12:23:16.359Z,13.1
2019-02-06T12:24:05.891Z,13.1
2019-02-06T12:24:55.149Z,13.1
2019-02-06T12:25:47.950Z,13.1
2019-02-06T12:26:35.790Z,13.1
2019-02-06T12:27:25.312Z,13.1
2019-02-06T12:28:16.509Z,13.1
2019-02-06T12:29:08.331Z,13.1
2019-02-06T12:29:56.414Z,13.1
2019-02-06T12:30:46.498Z,13.1
2019-02-06T12:31:36.437Z,13.1
2019-02-06T12:32:26.796Z,13.1
2019-02-06T12:33:16.067Z,13.1
2019-02-06T12:34:06.646Z,13.1
2019-02-06T12:34:59.331Z,13.1
2019-02-06T12:35:45.770Z,13.1
2019-02-06T12:36:36.266Z,13.1
2019-02-06T12:37:26.048Z,13.1
2019-02-06T12:38:16.604Z,13.1
2019-02-06T12:39:07.226Z,13.1
2019-02-06T12:39:57.058Z,13.1
2019-02-06T12:40:48.373Z,13.1
2019-02-06T12:41:37.103Z,13.1
2019-02-06T12:42:27.081Z,13.1
2019-02-06T12:43:19.351Z,13.1
2019-02-06T12:44:06.105Z,13.1
2019-02-06T12:44:59.534Z,13.1
2019-02-06T12:45:46.388Z,13.1
2019-02-06T12:46:39.857Z,13.1
2019-02-06T12:47:29.026Z,13.1
2019-02-06T12:48:16.154Z,13.1
2019-02-06T12:49:06.345Z,13.1
2019-02-06T12:49:57.212Z,13.1
2019-02-06T12:50:48.100Z,13.1
2019-02-06T12:51:37.265Z,13.1
2019-02-06T12:52:29.303Z,13.1
2019-02-06T12:53:17.969Z,13
2019-02-06T12:54:07.841Z,13
2019-02-06T12:54:58.315Z,12.9
2019-02-06T12:55:49.704Z,12.9
2019-02-06T12:56:38.257Z,12.9
2019-02-06T12:57:40.751Z,12.9
2019-02-06T12:58:17.992Z,12.9
2019-02-06T12:59:09.120Z,12.9
2019-02-06T12:59:57.665Z,12.9
2019-02-06T13:00:48.227Z,12.9
2019-02-06T13:01:40.312Z,12.9
2019-02-06T13:02:28.645Z,12.9
2019-02-06T13:03:18.397Z,12.9
2019-02-06T13:04:08.445Z,12.9
2019-02-06T13:04:58.874Z,12.9